Time;durP1;ratioP1;P1;durP2;ratioP2;P2;SDS_P1;SDS_P2;PMS_P1;PMS_P2;Temp;Humidity;BMP_temperature;BMP_pressure;BME280_temperature;BME280_humidity;BME280_pressure;Samples;Min_cycle;Max_cycle;Signal;HPM_P1;HPM_P2
2021/01/23 00:02:17;;;;;;;;;0.00;0.00;18.10;68.00;;;17.29;51.79;100968.47;5019226;28;8849;-61
2021/01/23 00:04:44;;;;;;;;;1.25;1.00;18.00;68.00;;;17.31;51.57;100973.69;5013923;28;8844;-61
2021/01/23 00:07:11;;;;;;;;;0.50;0.00;18.00;68.00;;;17.34;51.60;100973.41;5025475;28;8820;-60
2021/01/23 00:09:38;;;;;;;;;0.00;0.00;18.00;67.90;;;17.36;51.40;100982.97;5028652;28;8788;-61
2021/01/23 00:12:06;;;;;;;;;0.50;0.00;18.00;67.70;;;17.36;51.21;100974.13;5028570;28;8836;-62
2021/01/23 00:14:33;;;;;;;;;0.00;0.00;18.00;67.40;;;17.38;51.08;100979.28;5024013;28;8903;-60
2021/01/23 00:17:00;;;;;;;;;0.00;0.00;18.00;67.40;;;17.40;51.29;100975.50;5018738;28;8800;-59
2021/01/23 00:19:27;;;;;;;;;0.00;0.00;18.00;67.30;;;17.42;50.94;100976.22;5027280;28;8821;-60
2021/01/23 00:21:54;;;;;;;;;0.75;0.75;18.10;67.10;;;17.44;50.61;100984.94;5019461;28;8785;-59
2021/01/23 00:24:21;;;;;;;;;0.00;0.00;18.20;66.80;;;17.45;50.74;100978.59;5021936;28;8808;-60
2021/01/23 00:26:48;;;;;;;;;0.25;0.00;18.20;66.90;;;17.45;50.80;100967.91;5025194;28;8827;-58
2021/01/23 00:29:16;;;;;;;;;0.00;0.00;18.20;66.70;;;17.49;51.31;100969.31;5027637;28;9514;-62
2021/01/23 00:31:43;;;;;;;;;1.75;0.00;18.10;67.00;;;17.54;51.13;100979.59;5024082;28;9749;-63
2021/01/23 00:34:13;;;;;;;;;0.00;0.00;18.50;66.90;;;17.57;51.13;100980.13;5027867;28;8856;-64
2021/01/23 00:36:40;;;;;;;;;0.00;0.00;18.50;66.60;;;17.57;51.16;100980.13;5026344;28;8950;-63
2021/01/23 00:39:07;;;;;;;;;0.75;0.75;18.50;66.40;;;17.61;51.51;100978.03;5021128;28;8897;-63
2021/01/23 00:41:35;;;;;;;;;0.00;0.00;18.60;66.40;;;17.62;52.47;100990.41;5021616;28;8787;-58
2021/01/23 00:44:01;;;;;;;;;1.50;0.50;18.60;67.00;;;17.65;51.75;100989.28;5028304;28;8948;-64
2021/01/23 00:46:28;;;;;;;;;1.25;0.00;18.50;67.10;;;17.65;51.59;100981.25;5025409;28;8816;-64
2021/01/23 00:48:55;;;;;;;;;0.50;0.00;18.60;67.00;;;17.68;51.58;100986.31;5024370;28;9380;-67
2021/01/23 00:51:22;;;;;;;;;1.00;0.75;18.60;67.10;;;17.70;51.42;100984.34;5024422;28;9567;-65
2021/01/23 00:53:49;;;;;;;;;0.00;0.00;18.50;67.10;;;17.72;51.17;100987.72;5028085;28;8796;-68
2021/01/23 00:56:15;;;;;;;;;0.00;0.00;18.60;67.10;;;17.72;51.46;100988.56;5032543;28;8783;-63
2021/01/23 00:58:42;;;;;;;;;1.00;0.00;18.60;67.10;;;17.74;51.24;100993.78;5023861;28;8815;-64
2021/01/23 01:01:09;;;;;;;;;0.00;0.00;18.40;67.00;;;17.75;51.53;100992.78;5029233;28;8785;-61
2021/01/23 01:03:36;;;;;;;;;0.00;0.00;18.50;67.20;;;17.73;51.49;100986.72;5008463;28;8881;-62
2021/01/23 01:06:04;;;;;;;;;0.75;0.00;18.50;67.30;;;17.76;51.40;100994.47;5026087;28;8884;-61
2021/01/23 01:08:30;;;;;;;;;0.25;0.00;18.50;67.20;;;17.76;51.46;100994.47;5020307;28;8823;-58
2021/01/23 01:10:57;;;;;;;;;1.00;0.50;18.50;67.10;;;17.76;51.97;100992.66;5020075;28;9597;-56
2021/01/23 01:13:24;;;;;;;;;0.75;0.75;18.40;67.90;;;17.79;52.03;100988.84;5031284;28;8776;-56
2021/01/23 01:15:51;;;;;;;;;1.75;0.00;18.60;67.40;;;17.79;51.82;100999.53;5028433;28;8805;-56
2021/01/23 01:18:18;;;;;;;;;0.25;0.00;18.50;67.40;;;17.79;51.89;101004.88;5027970;28;8789;-56
2021/01/23 01:20:45;;;;;;;;;0.00;0.00;18.50;68.00;;;17.75;51.56;101006.97;5023838;28;8818;-55
2021/01/23 01:23:12;;;;;;;;;1.00;1.00;18.50;67.70;;;17.76;51.46;101006.00;5024952;28;8852;-56
2021/01/23 01:25:38;;;;;;;;;1.25;0.00;18.50;67.50;;;17.72;51.69;101001.09;5026200;28;8816;-55
2021/01/23 01:28:05;;;;;;;;;5.25;5.00;18.70;67.30;;;17.68;51.80;101002.34;5030168;28;8792;-55
2021/01/23 01:30:32;;;;;;;;;1.50;0.75;18.40;67.70;;;17.69;51.68;101004.03;5025806;28;8936;-55
2021/01/23 01:32:59;;;;;;;;;2.75;2.75;18.40;68.10;;;17.68;51.92;101000.53;5029648;28;8813;-55
2021/01/23 01:35:26;;;;;;;;;3.00;3.00;18.50;68.00;;;17.73;52.16;101008.97;5035025;28;8869;-56
2021/01/23 01:37:53;;;;;;;;;2.00;1.75;18.50;67.50;;;17.76;52.06;101006.00;5032859;28;9522;-55
2021/01/23 01:40:19;;;;;;;;;1.75;1.75;18.90;67.30;;;17.84;52.06;101007.16;5021921;28;8824;-56
2021/01/23 01:42:46;;;;;;;;;1.75;1.75;19.00;66.90;;;17.91;51.82;101009.13;5033769;28;8827;-55
2021/01/23 01:45:15;;;;;;;;;0.00;0.00;19.40;66.70;;;17.98;51.86;101018.22;5018257;28;8800;-56
2021/01/23 01:47:42;;;;;;;;;3.00;2.00;19.30;66.30;;;18.05;51.89;101015.00;5026557;28;8810;-56
2021/01/23 01:50:13;;;;;;;;;1.25;1.25;19.50;66.00;;;18.13;51.67;101023.13;5019038;28;8805;-56
2021/01/23 01:52:44;;;;;;;;;0.00;0.00;19.60;65.70;;;18.19;51.58;101025.22;5016183;28;8888;-57
2021/01/23 01:55:13;;;;;;;;;1.00;1.00;19.80;65.80;;;18.26;51.68;101039.69;5025030;28;8907;-56
2021/01/23 01:57:40;;;;;;;;;1.00;1.00;19.80;65.50;;;18.31;51.69;101042.78;5012319;28;8818;-57
2021/01/23 02:00:08;;;;;;;;;1.00;1.00;20.00;65.40;;;18.36;51.65;101045.00;5023232;28;8792;-55
2021/01/23 02:03:21;;;;;;;;;1.00;1.00;20.00;65.40;;;18.42;51.50;101053.31;5018128;28;8785;-57
2021/01/23 02:05:52;;;;;;;;;0.75;0.75;20.20;65.40;;;18.48;51.43;101053.72;5024764;28;8806;-54
2021/01/23 02:08:52;;;;;;;;;0.00;0.00;20.00;65.10;;;18.56;51.35;101054.66;5026267;28;8812;-56
2021/01/23 02:11:37;;;;;;;;;1.00;1.00;19.90;65.10;;;18.65;51.46;101063.66;5013983;28;8934;-56
2021/01/23 02:14:52;;;;;;;;;1.00;1.00;20.20;65.30;;;18.69;51.48;101054.31;5023814;28;9516;-56
2021/01/23 02:17:47;;;;;;;;;1.00;0.75;20.30;65.30;;;18.77;51.45;101058.97;5032318;28;8802;-57
2021/01/23 02:20:52;;;;;;;;;0.00;0.00;20.40;65.30;;;18.83;51.36;101059.22;5014969;28;8835;-57
2021/01/23 02:23:33;;;;;;;;;0.25;0.25;20.30;65.10;;;18.92;51.20;101057.50;5025315;28;8820;-54
2021/01/23 02:26:21;;;;;;;;;0.50;0.50;20.50;65.00;;;19.00;51.05;101056.75;5013686;28;8778;-57
2021/01/23 02:29:05;;;;;;;;;0.00;0.00;20.60;65.00;;;18.99;51.24;101057.75;5023574;28;8793;-57
2021/01/23 02:31:42;;;;;;;;;1.00;0.25;20.50;64.80;;;18.97;50.85;101067.75;5016922;28;8862;-57
2021/01/23 02:34:14;;;;;;;;;1.00;1.00;20.40;64.80;;;18.95;51.29;101061.69;5022932;28;8770;-57
2021/01/23 02:36:42;;;;;;;;;0.00;0.00;20.40;65.70;;;18.99;51.29;101061.25;5022419;28;8786;-56
2021/01/23 02:39:10;;;;;;;;;0.00;0.00;20.30;65.90;;;19.03;51.22;101054.63;5016628;28;9740;-56
2021/01/23 02:41:38;;;;;;;;;1.00;0.00;20.40;65.60;;;19.09;51.05;101053.19;5021599;28;8827;-56
2021/01/23 02:44:05;;;;;;;;;0.00;0.00;20.70;65.40;;;19.13;50.88;101059.06;5023436;28;9587;-56
2021/01/23 02:46:32;;;;;;;;;0.50;0.50;20.50;65.10;;;19.16;50.61;101059.63;5029390;28;9590;-56
2021/01/23 02:48:58;;;;;;;;;0.75;0.75;20.70;64.70;;;19.13;50.74;101059.91;5019552;28;8792;-57
2021/01/23 02:52:02;;;;;;;;;0.40;0.40;20.70;64.90;;;19.11;50.83;101061.91;5025355;28;8858;-56
2021/01/23 02:54:53;;;;;;;;;1.00;1.00;20.50;65.40;;;19.11;49.51;101053.88;5021453;28;8816;-61
2021/01/23 02:57:22;;;;;;;;;0.25;0.00;20.30;64.40;;;19.08;49.06;101056.81;5021493;28;8786;-59
2021/01/23 02:59:56;;;;;;;;;0.00;0.00;20.10;64.20;;;19.13;49.49;101061.75;5033742;28;8788;-57
2021/01/23 03:02:23;;;;;;;;;0.75;0.75;20.00;64.90;;;19.15;49.85;101065.13;5030828;28;8792;-57
2021/01/23 03:04:52;;;;;;;;;0.50;0.50;20.40;64.70;;;19.12;49.51;101068.09;5012569;28;8802;-57
2021/01/23 03:07:19;;;;;;;;;0.75;0.75;20.30;64.50;;;19.13;50.17;101075.13;5022139;28;8805;-57
2021/01/23 03:09:46;;;;;;;;;1.00;1.00;20.40;65.30;;;19.15;50.48;101070.47;5033963;28;8782;-54
2021/01/23 03:12:13;;;;;;;;;1.50;1.00;20.50;65.60;;;19.19;50.55;101070.03;5015506;28;8880;-58
2021/01/23 03:14:40;;;;;;;;;0.50;0.50;20.40;65.40;;;19.21;50.60;101067.19;5022802;28;8904;-64
2021/01/23 03:17:07;;;;;;;;;0.75;0.75;20.50;65.30;;;19.20;50.58;101062.81;5032054;28;8809;-57
2021/01/23 03:19:34;;;;;;;;;0.00;0.00;20.30;65.30;;;19.14;50.81;101064.28;5023684;28;8795;-57
2021/01/23 03:22:01;;;;;;;;;0.00;0.00;20.40;65.60;;;19.15;50.72;101062.44;5022251;28;8798;-57
2021/01/23 03:24:28;;;;;;;;;1.00;1.00;20.30;65.80;;;19.19;50.94;101070.03;5027127;28;8834;-57
2021/01/23 03:26:55;;;;;;;;;0.00;0.00;20.60;66.00;;;19.21;51.04;101073.41;5026601;28;9835;-57
2021/01/23 03:29:22;;;;;;;;;0.00;0.00;20.50;65.60;;;19.19;50.84;101064.66;5023628;28;8844;-56
2021/01/23 03:31:50;;;;;;;;;1.00;0.00;20.50;65.50;;;19.17;50.70;101066.66;5030595;28;8803;-57
2021/01/23 03:34:17;;;;;;;;;0.00;0.00;20.40;65.50;;;19.17;51.03;101068.50;5027707;28;8812;-57
2021/01/23 03:36:44;;;;;;;;;0.00;0.00;20.30;65.90;;;19.20;51.02;101066.34;5023230;28;8821;-57
2021/01/23 03:39:11;;;;;;;;;0.00;0.00;20.40;66.20;;;19.22;51.17;101064.38;5020077;28;8833;-57
2021/01/23 03:41:38;;;;;;;;;0.00;0.00;20.30;65.80;;;19.22;50.96;101069.72;5020404;28;8802;-57
2021/01/23 03:44:06;;;;;;;;;1.25;0.25;20.50;65.80;;;19.20;50.79;101061.00;5021520;28;8816;-57
2021/01/23 03:46:34;;;;;;;;;1.00;0.25;20.60;65.80;;;19.19;50.81;101059.31;5019167;28;8809;-57
2021/01/23 03:49:01;;;;;;;;;1.00;1.00;20.20;65.60;;;19.15;50.83;101057.91;5023694;28;8817;-57
2021/01/23 03:51:28;;;;;;;;;1.00;1.00;20.50;65.90;;;19.15;50.68;101060.59;5026022;28;9545;-57
2021/01/23 03:53:55;;;;;;;;;1.50;0.50;20.10;65.80;;;19.16;51.54;101059.63;5031055;28;8782;-57
2021/01/23 03:56:22;;;;;;;;;1.00;1.00;20.30;66.50;;;19.15;51.62;101063.28;5027002;28;9532;-57
2021/01/23 03:58:49;;;;;;;;;0.00;0.00;20.40;67.00;;;19.20;51.74;101060.16;5018450;28;8790;-56
2021/01/23 04:01:16;;;;;;;;;0.00;0.00;20.30;66.70;;;19.18;51.36;101057.63;5021310;28;8807;-57
2021/01/23 04:03:43;;;;;;;;;0.00;0.00;20.50;66.40;;;19.17;51.19;101063.97;5025747;28;9424;-57
2021/01/23 04:06:10;;;;;;;;;0.00;0.00;20.30;66.20;;;19.15;50.98;101068.63;5020946;28;8783;-57
2021/01/23 04:08:37;;;;;;;;;0.00;0.00;20.30;66.20;;;19.14;50.96;101061.59;5017890;28;8788;-57
2021/01/23 04:11:04;;;;;;;;;0.00;0.00;20.30;66.20;;;19.12;51.23;101063.59;5025760;28;8766;-57
2021/01/23 04:13:31;;;;;;;;;0.00;0.00;20.40;66.50;;;19.12;51.24;101060.91;5023153;28;8792;-57
2021/01/23 04:15:59;;;;;;;;;0.00;0.00;20.20;66.80;;;19.12;51.54;101055.53;5023533;28;8829;-56
2021/01/23 04:18:25;;;;;;;;;2.00;1.00;20.30;67.10;;;19.15;51.51;101068.63;5018557;28;8844;-57
2021/01/23 04:20:52;;;;;;;;;0.25;0.25;20.10;66.60;;;19.13;50.99;101070.59;5021533;28;8817;-57
2021/01/23 04:23:19;;;;;;;;;0.50;0.00;20.40;66.40;;;19.11;51.04;101067.25;5023960;28;8785;-57
2021/01/23 04:25:46;;;;;;;;;0.00;0.00;20.10;66.10;;;19.11;51.00;101067.25;5017423;28;8842;-58
2021/01/23 04:28:15;;;;;;;;;0.00;0.00;20.20;66.20;;;19.09;51.16;101072.75;5026528;28;9627;-57
2021/01/23 04:30:46;;;;;;;;;0.50;0.50;20.20;66.60;;;19.11;51.47;101075.28;5028792;28;8823;-56
2021/01/23 04:33:13;;;;;;;;;1.00;1.00;20.00;66.90;;;19.11;51.56;101069.06;5024056;28;9567;-53
2021/01/23 04:35:40;;;;;;;;;0.50;0.00;20.20;66.70;;;19.12;51.42;101074.28;5019288;28;8839;-57
2021/01/23 04:38:06;;;;;;;;;1.00;0.00;20.30;66.40;;;19.12;51.11;101076.13;5022169;28;8828;-57
2021/01/23 04:40:34;;;;;;;;;1.00;1.00;20.10;66.10;;;19.08;51.42;101073.75;5023296;28;9618;-57
2021/01/23 04:43:02;;;;;;;;;0.00;0.00;20.20;66.60;;;19.10;51.81;101078.94;5015782;28;8826;-57
2021/01/23 04:45:28;;;;;;;;;0.00;0.00;20.40;66.90;;;19.11;51.38;101077.97;5011226;28;8828;-57
2021/01/23 04:47:56;;;;;;;;;1.00;0.75;20.20;66.50;;;19.12;51.11;101085.00;5027272;28;8902;-57
2021/01/23 04:50:23;;;;;;;;;0.40;0.40;20.20;66.20;;;19.12;51.16;101081.50;5024403;28;8808;-56
2021/01/23 04:52:51;;;;;;;;;1.75;1.75;20.50;66.20;;;19.12;51.15;101084.16;5018828;28;8785;-56
2021/01/23 04:55:20;;;;;;;;;0.75;0.75;20.20;66.20;;;19.08;51.32;101080.94;5019318;28;8800;-57
2021/01/23 04:57:47;;;;;;;;;0.00;0.00;20.10;66.80;;;19.10;51.29;101089.66;4996152;28;8832;-57
2021/01/23 05:00:15;;;;;;;;;1.50;1.00;20.30;66.60;;;19.13;51.11;101092.03;5021045;28;8782;-55
2021/01/23 05:02:42;;;;;;;;;0.25;0.25;20.40;66.30;;;19.12;51.07;101093.03;5027320;28;8831;-55
2021/01/23 05:05:09;;;;;;;;;0.75;0.75;20.30;65.90;;;19.12;51.37;101098.41;5027982;28;8806;-56
2021/01/23 05:07:39;;;;;;;;;1.00;1.00;20.10;66.20;;;19.11;51.18;101095.84;5025039;28;8800;-55
2021/01/23 05:10:17;;;;;;;;;0.25;0.25;20.20;66.50;;;19.11;51.53;101094.03;5020107;28;8794;-56
2021/01/23 05:12:47;;;;;;;;;0.25;0.25;20.30;66.60;;;19.12;51.39;101095.72;5017745;28;8792;-56
2021/01/23 05:15:29;;;;;;;;;0.50;0.00;20.30;66.40;;;19.11;51.25;101093.19;5020815;28;8891;-56
2021/01/23 05:18:07;;;;;;;;;0.00;0.00;20.40;66.20;;;19.11;50.82;101094.03;5026849;28;8801;-54
2021/01/23 05:20:46;;;;;;;;;1.00;1.00;20.30;66.00;;;19.10;50.72;101097.69;5026305;28;8786;-54
2021/01/23 05:23:24;;;;;;;;;0.50;0.00;20.10;65.90;;;19.06;50.95;101099.84;5011174;28;8833;-56
2021/01/23 05:26:00;;;;;;;;;0.00;0.00;20.30;66.30;;;19.08;50.94;101105.91;5026063;28;9980;-55
2021/01/23 05:28:39;;;;;;;;;0.50;0.50;20.20;66.20;;;19.12;50.88;101100.22;5029042;28;8806;-56
2021/01/23 05:31:17;;;;;;;;;0.00;0.00;20.20;66.10;;;19.09;50.80;101096.84;5032591;28;9705;-56
2021/01/23 05:33:44;;;;;;;;;1.00;1.00;20.30;65.90;;;19.08;50.78;101088.97;5034983;28;8791;-56
2021/01/23 05:36:13;;;;;;;;;0.00;0.00;20.10;65.70;;;19.07;50.68;101081.94;5026600;28;8830;-57
2021/01/23 05:38:43;;;;;;;;;0.00;0.00;20.20;65.80;;;19.04;50.96;101093.78;5029352;28;8800;-55
2021/01/23 05:41:10;;;;;;;;;0.50;0.50;20.30;66.20;;;19.05;50.82;101091.94;5028373;28;8868;-56
2021/01/23 05:43:42;;;;;;;;;0.00;0.00;20.00;66.00;;;19.07;50.73;101087.28;5023997;28;8808;-57
2021/01/23 05:46:17;;;;;;;;;0.00;0.00;20.20;65.90;;;19.07;50.77;101093.47;5033976;28;8786;-56
2021/01/23 05:48:47;;;;;;;;;0.00;0.00;20.50;65.80;;;19.06;50.47;101099.84;5026320;28;8810;-56
2021/01/23 05:51:15;;;;;;;;;0.00;0.00;20.20;65.70;;;19.03;50.57;101096.59;5016673;28;8879;-54
2021/01/23 05:53:44;;;;;;;;;0.00;0.00;20.00;65.90;;;19.02;50.74;101090.41;5030989;28;8814;-56
2021/01/23 05:56:11;;;;;;;;;0.00;0.00;20.30;66.20;;;19.06;50.57;101086.44;5027500;28;8798;-56
2021/01/23 05:58:40;;;;;;;;;0.50;0.50;20.20;65.90;;;19.08;50.69;101086.28;5027362;28;8792;-56
2021/01/23 06:01:16;;;;;;;;;0.25;0.00;20.20;65.70;;;19.06;50.41;101090.97;5026063;28;8798;-53
2021/01/23 06:03:59;;;;;;;;;0.50;0.50;20.20;65.50;;;19.04;50.25;101083.06;5022191;28;8820;-57
2021/01/23 06:06:44;;;;;;;;;0.00;0.00;20.00;65.40;;;19.03;50.38;101077.84;5026259;28;8822;-56
2021/01/23 06:09:43;;;;;;;;;0.00;0.00;20.10;65.60;;;19.02;50.19;101065.47;5024701;28;9603;-56
2021/01/23 06:12:45;;;;;;;;;0.00;0.00;20.10;65.70;;;19.00;50.11;101067.44;5028575;28;8807;-56
2021/01/23 06:15:40;;;;;;;;;0.00;0.00;20.00;65.70;;;18.98;50.25;101078.31;4967644;28;8852;-53
2021/01/23 06:18:28;;;;;;;;;0.00;0.00;20.00;65.70;;;18.96;50.31;101076.78;5030143;28;8917;-56
2021/01/23 06:20:58;;;;;;;;;2.00;1.00;20.00;66.40;;;18.93;50.16;101072.56;5029495;28;8818;-55
2021/01/23 06:23:51;;;;;;;;;0.00;0.00;19.90;65.70;;;18.93;50.08;101079.75;4998074;28;8790;-54
2021/01/23 06:26:19;;;;;;;;;0.00;0.00;19.90;65.80;;;18.89;50.09;101073.84;5026697;28;8794;-54
2021/01/23 06:28:46;;;;;;;;;0.00;0.00;20.00;65.90;;;18.89;49.97;101078.38;5029176;28;8810;-55
2021/01/23 06:31:33;;;;;;;;;0.00;0.00;20.00;65.70;;;18.89;50.18;101078.38;5029459;28;10030;-56
2021/01/23 06:34:01;;;;;;;;;0.50;0.50;20.00;65.60;;;18.87;50.03;101082.03;5024897;28;9497;-53
2021/01/23 06:36:29;;;;;;;;;1.00;0.50;20.00;65.60;;;18.83;50.42;101077.97;5026436;28;8799;-59
2021/01/23 06:39:07;;;;;;;;;1.00;1.00;19.80;65.50;;;18.91;50.17;101076.41;5025649;28;8800;-58
2021/01/23 06:41:37;;;;;;;;;0.00;0.00;19.80;65.80;;;18.94;50.20;101086.81;5020786;28;8974;-58
2021/01/23 06:44:07;;;;;;;;;0.00;0.00;19.90;65.90;;;18.92;50.46;101080.75;5013435;28;9539;-56
2021/01/23 06:46:39;;;;;;;;;0.75;0.75;20.00;65.90;;;18.97;50.45;101086.50;5032024;28;8817;-58
2021/01/23 06:49:12;;;;;;;;;0.50;0.50;20.10;65.80;;;18.97;50.29;101086.50;5030394;28;8843;-55
2021/01/23 06:51:40;;;;;;;;;0.50;0.50;20.00;65.90;;;18.99;50.02;101089.88;5028815;28;8845;-55
2021/01/23 06:54:25;;;;;;;;;1.50;1.00;20.00;66.10;;;19.01;50.29;101093.25;5032554;28;9009;-56
2021/01/23 06:56:55;;;;;;;;;2.50;1.00;20.00;66.10;;;19.01;50.20;101095.94;5026776;28;8829;-56
2021/01/23 06:59:34;;;;;;;;;0.50;0.00;20.00;65.90;;;19.02;50.23;101094.94;5019410;28;8824;-56
2021/01/23 07:02:09;;;;;;;;;1.50;1.00;20.00;65.90;;;19.04;50.31;101096.47;5024313;28;8808;-54
2021/01/23 07:04:44;;;;;;;;;1.00;1.00;20.00;65.90;;;19.04;50.30;101093.78;5029595;28;8817;-54
2021/01/23 07:07:12;;;;;;;;;1.75;1.00;20.10;65.90;;;19.06;50.59;101094.47;5027455;28;8778;-56
2021/01/23 07:09:53;;;;;;;;;2.00;1.00;20.10;65.90;;;19.06;50.69;101093.66;5029394;28;8798;-55
2021/01/23 07:12:46;;;;;;;;;0.00;0.00;20.00;65.80;;;19.07;50.57;101089.97;5025988;28;8784;-56
2021/01/23 07:15:24;;;;;;;;;0.75;0.75;20.00;65.80;;;19.05;50.66;101090.09;5027360;28;8871;-56
2021/01/23 07:17:50;;;;;;;;;0.50;0.00;20.00;66.10;;;19.03;50.90;101093.91;5019140;28;8769;-55
2021/01/23 07:20:18;;;;;;;;;2.00;2.00;20.00;66.20;;;19.01;50.75;101085.22;5016563;28;8777;-54
2021/01/23 07:22:47;;;;;;;;;1.00;1.00;19.90;66.10;;;18.99;51.00;101092.56;5021023;28;9493;-55
2021/01/23 07:25:18;;;;;;;;;2.50;1.00;20.20;66.40;;;18.99;51.01;101092.56;5017453;28;8820;-55
2021/01/23 07:27:45;;;;;;;;;0.25;0.25;20.00;66.30;;;18.95;51.16;101093.81;5022757;28;8875;-54
2021/01/23 07:30:17;;;;;;;;;0.75;0.75;20.00;66.50;;;18.93;51.18;101096.66;5026184;28;8960;-53
2021/01/23 07:32:46;;;;;;;;;0.50;0.00;19.80;66.50;;;18.93;51.24;101098.47;5018895;28;8842;-55
2021/01/23 07:35:16;;;;;;;;;0.25;0.25;20.00;66.60;;;18.91;51.12;101104.00;5027972;28;8806;-54
2021/01/23 07:37:56;;;;;;;;;1.00;1.00;20.00;66.60;;;18.90;51.25;101096.94;5021718;28;8927;-55
2021/01/23 07:40:26;;;;;;;;;0.00;0.00;20.00;66.60;;;18.87;51.39;101098.09;5020756;28;8901;-55
2021/01/23 07:43:00;;;;;;;;;0.00;0.00;20.00;66.60;;;18.85;51.39;101105.44;5023899;28;8832;-56
2021/01/23 07:45:27;;;;;;;;;0.00;0.00;20.00;66.70;;;18.84;51.36;101101.06;5028923;28;8810;-55
2021/01/23 07:48:05;;;;;;;;;0.00;0.00;19.70;66.50;;;18.83;51.70;101102.06;5024480;28;8911;-55
2021/01/23 07:50:41;;;;;;;;;0.00;0.00;20.00;67.00;;;18.84;51.80;101108.25;5023990;28;8812;-56
2021/01/23 07:53:19;;;;;;;;;1.00;1.00;19.90;67.30;;;18.83;51.95;101104.75;5016063;28;8783;-56
2021/01/23 07:55:48;;;;;;;;;1.75;0.00;19.90;67.30;;;18.84;51.86;101105.56;5027676;28;8845;-56
2021/01/23 07:58:15;;;;;;;;;1.00;1.00;19.90;67.40;;;18.82;52.05;101110.22;5014959;28;9514;-56
2021/01/23 08:00:43;;;;;;;;;1.75;1.00;19.90;67.40;;;18.79;51.95;101108.69;5014945;28;8837;-56
2021/01/23 08:03:11;;;;;;;;;0.00;0.00;19.90;67.30;;;18.79;51.99;101105.16;5014505;28;8793;-55
2021/01/23 08:05:44;;;;;;;;;1.50;1.00;19.80;67.20;;;18.77;52.04;101097.28;5019537;28;8837;-56
2021/01/23 08:08:12;;;;;;;;;0.00;0.00;19.80;67.30;;;18.78;52.25;101106.19;5030962;28;8804;-56
2021/01/23 08:10:40;;;;;;;;;0.00;0.00;19.60;67.20;;;18.76;51.91;101108.97;5019439;28;8919;-56
2021/01/23 08:13:08;;;;;;;;;0.25;0.25;19.80;67.40;;;18.75;52.04;101103.72;5025024;28;8775;-56
2021/01/23 08:15:37;;;;;;;;;1.00;1.00;19.80;67.40;;;18.76;52.08;101113.50;5023345;28;8801;-56
2021/01/23 08:18:21;;;;;;;;;2.00;1.00;19.80;67.50;;;18.75;51.90;101107.31;5017180;28;8834;-56
2021/01/23 08:20:48;;;;;;;;;1.75;0.00;19.60;67.50;;;18.74;52.22;101104.75;5019728;28;8799;-56
2021/01/23 08:23:20;;;;;;;;;1.25;1.25;19.80;67.60;;;18.73;51.92;101101.22;5017688;28;8799;-56
2021/01/23 08:25:52;;;;;;;;;0.00;0.00;19.80;66.90;;;18.73;51.85;101098.53;5029222;28;8802;-56
2021/01/23 08:28:34;;;;;;;;;1.50;1.00;19.80;66.80;;;18.69;51.53;101099.81;5025569;28;8782;-56
2021/01/23 08:31:31;;;;;;;;;1.75;1.00;19.90;66.80;;;18.70;51.76;101098.84;5014122;28;8831;-56
2021/01/23 08:33:58;;;;;;;;;1.00;1.00;19.80;66.80;;;18.71;51.91;101103.19;4988981;28;9486;-55
2021/01/23 08:36:30;;;;;;;;;1.00;1.00;19.90;67.20;;;18.69;51.88;101105.16;5022276;28;8836;-55
2021/01/23 08:39:04;;;;;;;;;2.00;1.00;19.80;67.10;;;18.69;51.75;101102.50;5029423;28;8794;-55
2021/01/23 08:41:32;;;;;;;;;2.00;0.50;19.80;67.20;;;18.67;51.93;101101.78;5013141;28;8780;-55
2021/01/23 08:43:59;;;;;;;;;1.50;0.75;19.80;67.40;;;18.65;52.00;101104.63;5026606;28;8833;-55
2021/01/23 08:46:26;;;;;;;;;1.50;0.50;19.80;67.50;;;18.65;52.20;101103.78;5032861;28;8767;-55
2021/01/23 08:48:55;;;;;;;;;1.00;1.00;19.60;67.40;;;18.62;52.19;101104.94;5028283;28;8787;-55
2021/01/23 08:51:22;;;;;;;;;1.00;1.00;19.60;67.70;;;18.63;52.11;101108.44;5026925;28;8794;-53
2021/01/23 08:53:49;;;;;;;;;0.25;0.25;19.70;67.80;;;18.62;52.22;101114.75;5030220;28;9344;-54
2021/01/23 08:56:16;;;;;;;;;1.75;1.00;19.60;67.80;;;18.59;52.26;101110.53;5016492;28;8869;-55
2021/01/23 08:58:43;;;;;;;;;2.00;1.00;19.60;67.70;;;18.59;52.22;101115.06;5021547;28;9549;-55
2021/01/23 09:01:10;;;;;;;;;2.00;1.00;19.50;67.80;;;18.57;51.99;101112.56;5023200;28;8806;-55
2021/01/23 09:03:38;;;;;;;;;0.25;0.25;19.60;67.80;;;18.54;52.28;101110.13;5029739;28;8794;-55
2021/01/23 09:06:05;;;;;;;;;0.00;0.00;19.70;67.80;;;18.54;52.10;101111.97;5027769;28;8853;-55
2021/01/23 09:08:32;;;;;;;;;1.00;1.00;19.50;67.60;;;18.51;52.22;101110.44;5019631;28;8825;-56
2021/01/23 09:10:59;;;;;;;;;1.00;1.00;19.40;67.60;;;18.51;52.08;101114.94;5028007;28;8814;-56
2021/01/23 09:13:26;;;;;;;;;2.00;1.00;19.50;67.60;;;18.48;51.84;101113.41;5026908;28;8956;-56
2021/01/23 09:15:53;;;;;;;;;1.00;1.00;19.50;67.50;;;18.48;52.20;101116.09;5025861;28;8858;-54
2021/01/23 09:18:23;;;;;;;;;1.00;1.00;19.40;67.60;;;18.47;52.23;101118.88;5026084;28;8798;-56
2021/01/23 09:20:50;;;;;;;;;1.25;1.00;19.30;67.50;;;18.46;52.12;101114.53;5026304;28;8806;-56
2021/01/23 09:23:16;;;;;;;;;1.75;1.00;19.60;67.60;;;18.43;51.92;101116.50;5036161;28;8891;-56
2021/01/23 09:25:43;;;;;;;;;1.00;1.00;19.50;67.60;;;18.42;52.04;101120.19;5017822;28;8825;-55
2021/01/23 09:28:11;;;;;;;;;1.00;1.00;19.40;67.50;;;18.41;52.16;101118.47;5034240;28;8786;-55
2021/01/23 09:30:38;;;;;;;;;1.50;1.00;19.40;67.60;;;18.39;51.90;101124.97;5019956;28;8816;-56
2021/01/23 09:33:08;;;;;;;;;1.00;1.00;19.30;67.50;;;18.37;52.08;101127.81;5021639;28;8831;-55
2021/01/23 09:35:34;;;;;;;;;1.00;1.00;19.40;67.60;;;18.35;52.14;101132.44;5029272;28;8798;-54
2021/01/23 09:38:01;;;;;;;;;0.75;0.75;19.20;67.40;;;18.37;52.08;101140.34;5030579;28;8837;-54
2021/01/23 09:40:28;;;;;;;;;1.00;1.00;19.30;67.60;;;18.34;52.03;101133.44;5031749;28;8822;-54
2021/01/23 09:42:55;;;;;;;;;0.50;0.00;19.40;67.60;;;18.33;52.05;101136.25;5018246;28;8838;-53
2021/01/23 09:45:21;;;;;;;;;1.00;1.00;19.40;67.50;;;18.33;51.97;101138.91;5022029;28;8859;-55
2021/01/23 09:47:48;;;;;;;;;0.50;0.50;19.40;67.50;;;18.30;51.79;101142.72;5025231;28;8810;-55
2021/01/23 09:50:20;;;;;;;;;2.00;1.50;19.40;67.50;;;18.31;52.05;101162.28;5027226;28;8808;-54
2021/01/23 09:52:48;;;;;;;;;3.00;2.00;19.30;67.40;;;18.29;52.22;101159.75;5019760;28;8885;-55
2021/01/23 09:55:16;;;;;;;;;2.00;1.00;19.10;67.40;;;18.29;52.21;101165.09;5035173;28;8861;-51
2021/01/23 09:57:43;;;;;;;;;1.00;1.00;19.30;67.60;;;18.28;52.06;101170.59;5036824;28;8788;-55
2021/01/23 10:00:11;;;;;;;;;1.00;1.00;19.30;67.50;;;18.27;52.13;101167.09;5036515;28;8832;-55
2021/01/23 10:02:39;;;;;;;;;1.00;1.00;19.30;67.50;;;18.24;51.95;101167.34;5023685;28;8816;-54
2021/01/23 10:05:06;;;;;;;;;1.25;1.00;19.50;67.50;;;18.24;51.95;101167.34;5028412;28;8809;-55
2021/01/23 10:07:33;;;;;;;;;1.25;1.25;19.20;67.30;;;18.22;52.05;101169.34;5029986;28;8856;-56
2021/01/23 10:10:00;;;;;;;;;0.75;0.00;19.30;67.30;;;18.21;51.80;101171.16;5010228;28;8788;-55
2021/01/23 10:12:29;;;;;;;;;1.00;1.00;19.20;67.30;;;18.20;52.05;101173.97;5020260;28;8771;-55
2021/01/23 10:14:56;;;;;;;;;0.75;0.75;19.40;67.40;;;18.21;51.82;101181.00;5027336;28;8887;-55
2021/01/23 10:17:23;;;;;;;;;1.00;1.00;19.00;67.00;;;18.19;51.77;101183.84;5021938;28;9509;-55
2021/01/23 10:19:51;;;;;;;;;0.75;0.75;19.00;67.00;;;18.19;51.94;101180.28;5019366;28;8824;-54
2021/01/23 10:22:19;;;;;;;;;0.00;0.00;19.10;67.10;;;18.15;52.03;101169.06;5021999;28;8833;-56
2021/01/23 10:24:46;;;;;;;;;0.75;0.00;19.10;67.10;;;18.16;51.84;101177.91;5033760;28;8903;-56
2021/01/23 10:27:13;;;;;;;;;1.75;1.75;19.20;67.20;;;18.14;52.11;101180.75;5029509;28;8826;-56
2021/01/23 10:29:40;;;;;;;;;1.50;1.50;19.20;67.30;;;18.13;51.87;101172.84;5025720;28;8845;-56
2021/01/23 10:32:07;;;;;;;;;2.00;0.25;19.20;67.30;;;18.12;51.89;101172.00;5031956;28;8858;-56
2021/01/23 10:34:34;;;;;;;;;2.50;2.50;19.10;67.10;;;18.12;51.95;101171.19;5034399;28;9605;-56
2021/01/23 10:37:01;;;;;;;;;0.50;0.50;19.10;67.20;;;18.10;51.93;101165.97;5028405;28;8882;-55